Latest Weather Observations for Hamilton Island

IDQ60801

Issued at 4:32 pm EST Saturday 25 February 2017 (issued every 30 minutes, with the page automatically refreshed every 10 minutes)

About weather observations | Map of weather stations | Latest weather observations for QLD | Other Formats
Station Details ID: 033106 Name: HAMILTON ISLAND AIRPORT Lat: -20.37 Lon: 148.95 Height: 58.66 m
Data from the previous 72 hours. | See also: Recent months at Hamilton Island
Date/Time
EST
Temp
°C
App
Temp
°C
Dew
Point
°C
Rel
Hum
%
Delta-T
°C
Wind Press
QNH
hPa
Press
MSL
hPa
Rain since
9am
mm
Dir  Spd
km/h
Gust
km/h
Spd
kts
Gust
kts
25/04:30pm 28.0 24.8 21.1 66 4.6 SE 39 46 21 25 1010.3 - 0.0
25/04:00pm 28.6 25.2 20.6 62 5.3 SE 39 44 21 24 1010.4 - 0.0
25/03:30pm 29.0 25.6 20.7 61 5.5 SE 39 46 21 25 1010.3 - 0.0
25/03:00pm 28.9 25.9 20.6 61 5.5 SE 37 44 20 24 1010.5 1010.1 0.0
25/02:30pm 29.1 25.6 20.3 59 5.8 SE 39 44 21 24 1010.7 - 0.0
25/02:00pm 29.9 26.9 20.7 57 6.1 SE 37 43 20 23 1011.0 - 0.0
25/01:30pm 29.7 26.5 20.3 57 6.2 SE 37 44 20 24 1011.3 - 0.0
25/01:00pm 29.9 27.8 21.6 61 5.6 SE 35 41 19 22 1011.8 - 0.0
25/12:30pm 29.7 26.0 20.0 56 6.4 SE 39 44 21 24 1012.0 - 0.0
25/12:00pm 29.7 26.6 20.5 57 6.1 SE 37 43 20 23 1012.5 1012.1 0.0
25/11:30am 30.1 28.4 21.7 60 5.7 SE 33 41 18 22 1012.8 - 0.0
25/11:00am 29.8 29.3 22.8 66 4.8 SE 30 35 16 19 1013.1 - 0.0
25/10:30am 29.3 28.2 21.8 64 5.1 SE 30 35 16 19 1013.2 - 0.0
25/10:00am 29.6 28.4 21.5 61 5.4 ESE 30 35 16 19 1013.4 - 0.0
25/09:30am 29.6 29.7 22.6 66 4.8 SE 26 32 14 17 1013.5 - 0.0
25/09:00am 29.0 28.4 22.0 66 4.7 ESE 28 33 15 18 1013.4 1013.0 5.6
25/08:30am 29.0 29.4 23.2 71 4.0 ESE 26 32 14 17 1013.3 - 5.6
25/08:00am 28.5 27.4 21.8 67 4.5 ESE 30 33 16 18 1013.3 - 5.6
25/07:30am 28.4 27.9 22.2 69 4.2 ESE 28 32 15 17 1013.2 - 5.6
25/07:00am 27.4 27.0 22.3 73 3.4 ESE 28 33 15 18 1012.8 - 5.6
25/06:30am 27.3 26.7 22.7 76 3.1 ESE 30 37 16 20 1012.5 - 5.6
25/06:00am 27.3 26.8 22.9 77 3.0 ESE 30 37 16 20 1012.0 1011.6 5.6
25/05:30am 27.3 26.4 22.9 77 3.0 ESE 32 37 17 20 1011.7 - 5.6
25/05:00am 27.1 25.8 22.5 76 3.1 ESE 33 39 18 21 1011.5 - 5.6
25/04:30am 27.2 26.2 23.0 78 2.9 ESE 33 39 18 21 1011.8 - 5.6
25/04:00am 27.2 26.2 23.0 78 2.9 ESE 33 41 18 22 1011.7 - 5.6
25/03:30am 27.3 26.7 22.7 76 3.1 ESE 30 37 16 20 1011.9 - 5.6
25/03:00am 27.3 26.8 22.9 77 3.0 ESE 30 33 16 18 1011.7 1011.3 5.6
25/02:30am 27.3 26.5 22.3 74 3.4 ESE 30 35 16 19 1011.8 - 5.6
25/02:00am 27.3 26.3 22.7 76 3.1 ESE 32 37 17 20 1011.9 - 5.6
25/01:30am 27.4 26.7 23.2 78 2.9 ESE 32 35 17 19 1012.2 - 5.6
25/01:00am 27.4 26.5 22.8 76 3.1 ESE 32 37 17 20 1012.3 - 5.6
25/12:30am 27.5 26.4 22.9 76 3.1 ESE 33 39 18 21 1012.6 - 5.6
25/12:00am 27.7 26.7 23.7 79 2.8 ESE 35 39 19 21 1012.7 1012.3 5.6
 
Date/Time
EST
Temp
°C
App
Temp
°C
Dew
Point
°C
Rel
Hum
%
Delta-T
°C
Wind Press
QNH
hPa
Press
MSL
hPa
Rain since
9am
mm
Dir  Spd
km/h
Gust
km/h
Spd
kts
Gust
kts
24/11:30pm 27.7 27.2 23.5 78 2.9 E 32 35 17 19 1013.1 - 5.6
24/11:00pm 27.5 26.6 22.9 76 3.1 ESE 32 39 17 21 1013.4 - 5.6
24/10:30pm 27.4 26.6 23.0 77 3.0 ESE 32 39 17 21 1013.5 - 5.6
24/10:00pm 27.4 27.2 23.4 79 2.7 ESE 30 37 16 20 1013.5 - 5.6
24/09:30pm 27.6 26.7 23.2 77 3.0 ESE 33 39 18 21 1013.5 - 5.6
24/09:00pm 27.4 27.0 23.0 77 3.0 ESE 30 35 16 19 1013.4 1013.0 5.6
24/08:30pm 27.4 26.3 22.8 76 3.1 ESE 33 39 18 21 1013.1 - 5.6
24/08:00pm 27.4 26.6 23.4 79 2.7 ESE 33 41 18 22 1012.9 - 5.6
24/07:30pm 27.3 27.0 23.3 79 2.7 ESE 30 37 16 20 1012.8 - 5.6
24/07:00pm 27.0 26.0 23.7 82 2.3 SE 35 43 19 23 1012.8 - 5.6
24/06:30pm 27.2 26.5 23.2 79 2.7 ESE 32 35 17 19 1012.5 - 5.6
24/06:00pm 26.8 26.0 22.4 77 3.0 SE 30 33 16 18 1012.2 1011.8 5.6
24/05:30pm 27.1 27.2 23.3 80 2.6 SE 28 33 15 18 1012.3 - 5.6
24/05:00pm 27.1 27.8 23.6 81 2.4 SE 26 32 14 17 1012.4 - 5.6
24/04:30pm 27.8 29.0 23.2 76 3.1 SE 22 28 12 15 1012.2 - 5.6
24/04:00pm 27.3 26.5 23.1 78 2.9 SE 32 37 17 20 1012.1 - 5.6
24/03:45pm 27.5 26.5 23.7 80 2.6 SE 35 41 19 22 1012.1 - 5.6
24/03:30pm 27.7 26.6 24.1 81 2.5 SE 37 43 20 23 1012.1 - 5.6
24/03:00pm 27.0 26.0 24.3 85 1.9 SE 37 43 20 23 1012.1 1011.7 5.6
24/02:30pm 26.4 26.4 24.4 89 1.4 SSE 32 41 17 22 1012.6 - 5.6
24/02:23pm 26.1 28.6 24.5 91 1.1 SE 19 35 10 19 1012.7 - 5.6
24/02:16pm 25.6 28.7 24.2 92 1.0 SE 15 24 8 13 1012.9 - 5.6
24/02:15pm 25.7 28.9 24.3 92 1.0 SE 15 28 8 15 1012.9 - 5.6
24/02:00pm 25.7 23.6 23.7 89 1.4 E 41 65 22 35 1012.6 - 5.0
24/01:59pm 25.5 22.8 23.4 88 1.4 ESE 43 65 23 35 1012.6 - 4.8
24/01:54pm 26.9 21.8 23.4 81 2.4 SE 56 65 30 35 1012.4 - 3.2
24/01:52pm 26.8 21.1 22.8 79 2.7 SE 57 65 31 35 1012.5 - 3.2
24/01:50pm 28.2 27.4 24.0 78 2.9 SSE 35 57 19 31 1012.6 - 3.2
24/01:30pm 28.7 26.4 23.4 73 3.6 SSE 41 46 22 25 1013.0 - 3.2
24/01:00pm 28.2 25.5 24.4 80 2.6 SSE 46 54 25 29 1013.1 - 3.0
24/12:30pm 27.8 26.1 24.4 82 2.4 SSE 41 48 22 26 1013.4 - 3.0
24/12:29pm 28.0 26.5 24.8 83 2.2 SSE 41 46 22 25 1013.4 - 3.0
24/12:15pm 27.2 26.2 25.0 88 1.5 SE 39 50 21 27 1013.5 - 3.0
24/12:00pm 27.1 25.9 24.6 86 1.7 SE 39 50 21 27 1013.6 1013.2 3.0
24/11:30am 27.2 25.1 23.0 78 2.9 SE 39 54 21 29 1013.8 - 1.2
24/11:00am 28.5 28.6 24.5 79 2.8 ESE 32 39 17 21 1014.2 - 1.2
24/10:30am 27.4 27.2 25.0 87 1.7 ESE 35 46 19 25 1014.5 - 1.2
24/10:22am 27.6 28.0 23.8 80 2.6 ESE 28 46 15 25 1014.3 - 0.4
24/10:14am 27.6 29.4 24.8 85 2.0 ESE 24 30 13 16 1014.5 - 0.4
24/10:00am 26.1 24.3 23.6 86 1.7 E 39 61 21 33 1014.6 - 0.4
24/09:58am 26.2 23.7 23.7 86 1.7 E 43 61 23 33 1014.5 - 0.4
24/09:56am 25.9 22.5 23.2 85 1.8 E 46 61 25 33 1014.4 - 0.4
24/09:51am 27.6 27.3 23.8 80 2.6 ESE 32 54 17 29 1014.2 - 0.2
24/09:30am 29.1 29.0 24.2 75 3.4 ESE 32 37 17 20 1014.5 - 0.0
24/09:09am 29.1 27.4 23.1 70 4.1 ESE 37 44 20 24 1014.4 - 0.0
24/09:00am 28.4 27.5 24.4 79 2.8 ESE 37 50 20 27 1014.3 1013.9 1.4
24/08:37am 29.1 29.1 24.4 76 3.3 ESE 32 37 17 20 1014.4 - 1.4
24/08:30am 28.5 28.2 23.9 76 3.2 ESE 32 37 17 20 1014.3 - 1.4
24/08:00am 26.3 24.1 22.8 81 2.4 ESE 39 46 21 25 1014.2 - 1.4
24/07:55am 25.8 23.4 22.5 82 2.2 ESE 39 52 21 28 1014.3 - 1.4
24/07:30am 27.9 27.6 23.3 76 3.2 SE 30 35 16 19 1014.1 - 1.4
24/07:00am 27.6 27.1 23.8 80 2.6 SE 33 39 18 21 1013.8 - 1.4
24/06:30am 27.0 26.7 23.9 83 2.1 SE 32 39 17 21 1013.8 - 1.4
24/06:00am 27.2 26.4 23.0 78 2.9 SE 32 43 17 23 1013.4 1013.0 1.4
24/05:30am 27.3 25.4 22.7 76 3.1 SE 37 44 20 24 1013.2 - 1.4
24/05:00am 27.4 26.8 23.4 79 2.7 ESE 32 37 17 20 1013.1 - 1.4
24/04:30am 27.3 26.7 23.3 79 2.7 ESE 32 37 17 20 1013.1 - 1.4
24/04:00am 27.2 26.5 23.2 79 2.7 ESE 32 35 17 19 1013.2 - 1.4
24/03:49am 27.4 26.7 23.2 78 2.9 ESE 32 39 17 21 1013.1 - 1.4
24/03:31am 27.3 27.7 23.7 81 2.5 SE 28 32 15 17 1013.4 - 1.4
24/03:30am 27.2 27.6 23.7 81 2.4 SE 28 32 15 17 1013.4 - 1.4
24/03:00am 27.2 27.0 23.4 80 2.6 SE 30 33 16 18 1013.3 1012.9 1.4
24/02:30am 27.1 26.2 22.9 78 2.9 SE 32 39 17 21 1013.4 - 1.4
24/02:00am 27.0 26.1 22.8 78 2.9 SE 32 35 17 19 1013.7 - 1.4
24/01:30am 27.2 26.5 23.2 79 2.7 SE 32 37 17 20 1014.2 - 1.4
24/01:00am 27.3 27.2 23.5 80 2.6 SE 30 35 16 19 1014.5 - 1.4
24/12:30am 27.5 27.9 23.7 80 2.6 SE 28 33 15 18 1014.7 - 1.4
24/12:00am 27.5 27.7 23.5 79 2.7 ESE 28 35 15 19 1015.0 1014.7 1.4
 
Date/Time
EST
Temp
°C
App
Temp
°C
Dew
Point
°C
Rel
Hum
%
Delta-T
°C
Wind Press
QNH
hPa
Press
MSL
hPa
Rain since
9am
mm
Dir  Spd
km/h
Gust
km/h
Spd
kts
Gust
kts
23/11:30pm 27.4 26.6 23.0 77 3.0 SE 32 35 17 19 1015.2 - 1.4
23/11:00pm 27.5 27.5 23.7 80 2.6 SE 30 35 16 19 1015.3 - 1.4
23/10:30pm 27.5 26.7 23.3 78 2.9 ESE 33 41 18 22 1015.2 - 1.4
23/10:00pm 27.7 27.4 23.9 80 2.6 ESE 32 39 17 21 1015.0 - 1.4
23/09:34pm 27.6 26.6 23.6 79 2.8 ESE 35 43 19 23 1014.8 - 1.4
23/09:30pm 27.6 26.6 23.6 79 2.8 ESE 35 43 19 23 1014.9 - 1.4
23/09:00pm 27.5 26.4 23.5 79 2.7 ESE 35 43 19 23 1014.6 1014.3 1.4
23/08:30pm 27.6 26.7 23.8 80 2.6 ESE 35 41 19 22 1014.5 - 1.4
23/08:00pm 27.5 26.6 23.1 77 3.0 ESE 33 39 18 21 1014.3 - 1.4
23/07:33pm 27.6 26.1 23.4 78 2.9 ESE 37 46 20 25 1014.1 - 1.4
23/07:30pm 27.8 26.6 24.0 80 2.6 SE 37 46 20 25 1014.0 - 1.4
23/07:00pm 27.6 26.8 24.0 81 2.5 SE 35 41 19 22 1013.8 - 1.4
23/06:51pm 27.7 27.3 24.1 81 2.5 ESE 33 43 18 23 1013.9 - 1.4
23/06:30pm 27.5 27.1 24.1 82 2.4 ESE 33 39 18 21 1013.6 - 1.4
23/06:26pm 27.6 27.4 24.4 83 2.2 ESE 33 39 18 21 1013.6 - 1.4
23/06:00pm 27.5 27.3 24.1 82 2.4 SE 32 35 17 19 1013.4 1013.0 1.4
23/05:43pm 27.5 26.8 24.1 82 2.4 SE 35 41 19 22 1013.2 - 1.4
23/05:30pm 27.6 27.3 24.2 82 2.4 SE 33 41 18 22 1013.2 - 1.4
23/05:00pm 27.4 26.9 23.8 81 2.5 SE 33 39 18 21 1013.1 - 1.4
23/04:30pm 27.3 26.3 23.7 81 2.5 SE 35 43 19 23 1012.9 - 1.4
23/04:11pm 27.0 25.8 23.9 83 2.1 SE 37 43 20 23 1012.9 - 1.4
23/04:00pm 26.6 26.7 23.9 85 1.9 SE 30 41 16 22 1013.0 - 1.4
23/03:54pm 26.5 26.6 24.5 89 1.4 SE 32 43 17 23 1013.0 - 1.4
23/03:40pm 27.8 27.5 24.8 84 2.1 SE 35 41 19 22 1013.0 - 1.2
23/03:30pm 27.9 28.2 24.9 84 2.1 SE 32 37 17 20 1013.0 - 1.0
23/03:12pm 27.0 26.5 24.5 86 1.7 SSE 35 41 19 22 1013.0 - 1.0
23/03:00pm 27.1 26.4 24.2 84 2.0 SSE 35 41 19 22 1012.8 1012.4 1.0
23/02:30pm 27.1 25.9 24.6 86 1.7 SE 39 44 21 24 1013.3 - 1.0
23/02:04pm 25.8 25.2 24.4 92 1.0 SSE 35 46 19 25 1013.6 - 1.0
23/02:00pm 25.7 24.4 24.5 93 0.8 SSE 39 48 21 26 1013.7 - 1.0
23/01:43pm 26.7 24.6 23.8 84 2.0 SSE 41 54 22 29 1013.8 - 0.2
23/01:31pm 27.2 24.9 24.1 83 2.1 SSE 43 54 23 29 1014.0 - 0.2
23/01:30pm 27.1 24.8 24.0 83 2.1 SSE 43 54 23 29 1014.0 - 0.2
23/01:19pm 28.8 27.5 23.2 71 3.8 SE 35 41 19 22 1014.0 - 0.2
23/01:00pm 29.9 30.9 24.8 74 3.6 SE 28 33 15 18 1014.1 - 0.2
23/12:46pm 29.2 29.4 24.1 74 3.5 SE 30 35 16 19 1014.2 - 0.2
23/12:36pm 28.7 30.8 25.3 82 2.4 SE 24 30 13 16 1014.3 - 0.2
23/12:30pm 27.9 29.4 24.3 81 2.5 SE 24 30 13 16 1014.4 - 0.2
23/12:07pm 27.0 28.3 25.2 90 1.3 SSE 28 32 15 17 1014.8 - 0.2
23/12:00pm 26.3 26.0 24.2 88 1.5 SE 33 44 18 24 1014.8 1014.5 0.2
23/11:50am 26.2 25.1 22.9 82 2.2 SSE 33 46 18 25 1014.9 - 0.2
23/11:30am 27.6 28.3 23.6 79 2.8 SE 26 33 14 18 1015.1 - 0.2
23/11:00am 28.5 29.2 24.3 78 2.9 SE 28 35 15 19 1015.2 - 0.2
23/10:30am 27.6 27.3 23.8 80 2.6 ESE 32 37 17 20 1015.2 - 0.0
23/10:00am 26.5 25.5 23.6 84 2.0 E 35 44 19 24 1015.3 - 0.0
23/09:51am 26.2 23.9 23.3 84 2.0 E 41 54 22 29 1015.3 - 0.0
23/09:32am 25.9 22.2 23.2 85 1.8 E 48 56 26 30 1015.5 - 0.0
23/09:30am 26.2 22.9 23.9 87 1.6 E 48 56 26 30 1015.4 - 0.0
23/09:00am 26.0 23.8 24.2 90 1.2 ESE 43 50 23 27 1015.5 1015.2 12.0
23/08:53am 25.6 22.7 23.3 87 1.6 ESE 44 54 24 29 1015.5 - 12.0
23/08:40am 26.1 24.0 24.3 90 1.2 E 43 52 23 28 1015.4 - 12.0
23/08:30am 25.9 24.1 24.3 91 1.1 E 41 46 22 25 1015.3 - 12.0
23/08:06am 26.7 24.4 24.4 87 1.6 E 44 52 24 28 1014.8 - 11.6
23/08:00am 26.4 24.1 24.1 87 1.6 E 43 52 23 28 1014.7 - 11.6
23/07:39am 26.8 25.1 23.7 83 2.1 E 39 54 21 29 1014.6 - 11.6
23/07:30am 27.7 25.2 23.1 76 3.1 SE 41 46 22 25 1014.5 - 11.6
23/07:00am 28.1 26.1 23.2 74 3.4 ESE 39 48 21 26 1014.3 - 11.6
23/06:30am 27.5 25.4 23.1 77 3.0 ESE 39 48 21 26 1013.9 - 11.6
23/06:00am 27.3 25.0 22.7 76 3.1 ESE 39 48 21 26 1013.8 1013.4 11.6
23/05:30am 27.2 25.3 23.4 80 2.6 ESE 39 46 21 25 1013.4 - 11.6
23/05:00am 26.6 25.0 23.3 82 2.3 SE 37 43 20 23 1013.1 - 11.6
23/04:30am 26.3 24.9 23.6 85 1.9 SE 37 48 20 26 1013.0 - 11.4
23/04:05am 26.3 26.1 24.0 87 1.6 SE 32 39 17 21 1012.7 - 11.4
23/04:04am 26.3 26.2 24.2 88 1.5 SE 32 37 17 20 1012.7 - 11.4
23/04:00am 26.2 26.6 24.4 90 1.2 ESE 30 39 16 21 1012.7 - 11.4
23/03:47am 25.6 28.0 24.2 92 1.0 E 19 30 10 16 1012.8 - 10.6
23/03:42am 25.4 27.1 24.0 92 1.0 ENE 22 35 12 19 1012.9 - 10.6
23/03:41am 25.4 26.7 24.0 92 1.0 ENE 24 35 13 19 1012.8 - 10.6
23/03:30am 25.5 27.2 24.1 92 1.0 E 22 30 12 16 1012.7 - 10.6
23/03:18am 24.5 24.5 23.1 92 0.9 NE 28 41 15 22 1013.0 - 10.2
23/03:00am 24.9 24.5 23.7 93 0.8 ESE 32 43 17 23 1013.2 1012.8 5.0
23/02:50am 25.0 24.8 24.0 94 0.7 ESE 32 61 17 33 1013.2 - 3.8
23/02:44am 24.1 19.2 22.5 91 1.1 ESE 52 70 28 38 1013.1 - 3.0
23/02:42am 24.8 19.5 23.2 91 1.1 ESE 56 70 30 38 1013.1 - 2.6
23/02:36am 26.1 20.5 23.0 83 2.1 ESE 57 70 31 38 1012.9 - 0.4
23/02:34am 27.0 25.9 23.5 81 2.4 SE 35 54 19 29 1013.0 - 0.4
23/02:30am 26.9 26.5 24.0 84 2.0 SE 33 43 18 23 1013.1 - 0.4
23/02:00am 27.3 25.1 22.9 77 3.0 ESE 39 46 21 25 1013.4 - 0.4
23/01:30am 27.3 24.7 23.5 80 2.6 ESE 43 50 23 27 1013.3 - 0.4
23/01:00am 27.7 26.9 23.3 77 3.0 ESE 33 43 18 23 1013.8 - 0.4
23/12:30am 27.0 26.4 22.6 77 3.0 SE 30 35 16 19 1014.2 - 0.4
23/12:00am 26.5 23.5 23.2 82 2.3 SE 44 52 24 28 1014.4 1014.0 0.4
 
Date/Time
EST
Temp
°C
App
Temp
°C
Dew
Point
°C
Rel
Hum
%
Delta-T
°C
Wind Press
QNH
hPa
Press
MSL
hPa
Rain since
9am
mm
Dir  Spd
km/h
Gust
km/h
Spd
kts
Gust
kts
22/11:44pm 27.5 26.4 23.5 79 2.7 ESE 35 57 19 31 1014.3 - 0.4
22/11:30pm 27.3 26.0 23.1 78 2.9 ESE 35 43 19 23 1014.4 - 0.4
22/11:00pm 27.4 26.0 23.6 80 2.6 ESE 37 44 20 24 1014.6 - 0.4
22/10:30pm 27.3 25.1 22.9 77 3.0 ESE 39 48 21 26 1014.7 - 0.4
22/10:00pm 27.6 24.7 23.4 78 2.9 SE 44 50 24 27 1014.4 - 0.4
22/09:30pm 27.6 25.6 23.2 77 3.0 ESE 39 46 21 25 1014.1 - 0.4
22/09:00pm 27.0 24.8 22.2 75 3.2 ESE 37 48 20 26 1013.9 1013.5 0.4
22/08:30pm 27.5 24.8 22.7 75 3.3 ESE 41 52 22 28 1013.6 - 0.4
22/08:00pm 27.4 24.6 23.2 78 2.9 SE 43 46 23 25 1013.5 - 0.4
22/07:30pm 26.9 24.8 23.8 83 2.1 ESE 41 50 22 27 1013.2 - 0.4
22/07:17pm 27.4 24.8 22.8 76 3.1 SE 41 59 22 32 1012.8 - 0.4
22/07:00pm 27.8 25.1 22.7 74 3.5 SE 41 46 22 25 1012.9 - 0.4
22/06:30pm 28.1 26.2 23.5 76 3.2 SE 39 46 21 25 1012.5 - 0.4
22/06:00pm 28.1 25.9 22.8 73 3.6 SE 39 46 21 25 1012.2 1011.8 0.4
22/05:30pm 28.5 26.9 23.2 73 3.6 SE 37 43 20 23 1012.1 - 0.4
22/05:00pm 28.7 27.6 23.4 73 3.6 SE 35 39 19 21 1012.0 - 0.4

Other Formats:

Comma delimited format used in spreadsheet applications
http://www.bom.gov.au/fwo/IDQ60801/IDQ60801.94368.axf

JavaScript Object Notation format (JSON) in row-major order
http://www.bom.gov.au/fwo/IDQ60801/IDQ60801.94368.json